Time;durP1;ratioP1;P1;durP2;ratioP2;P2;SDS_P1;SDS_P2;PMS_P1;PMS_P2;Temp;Humidity;BMP_temperature;BMP_pressure;BME280_temperature;BME280_humidity;BME280_pressure;Samples;Min_cycle;Max_cycle;Signal;HPM_P1;HPM_P2
2023/03/01 00:02:07;;;;;;;30.35;18.65;;;;;;;-2.43;72.44;101343.78;1834988;78;21188;-58
2023/03/01 00:06:42;;;;;;;30.68;19.15;;;;;;;-2.44;72.41;101338.48;1869556;75;22227;-59
2023/03/01 00:10:39;;;;;;;28.70;18.82;;;;;;;-2.53;72.43;101343.79;1816872;77;21160;-59
2023/03/01 00:15:01;;;;;;;34.70;19.40;;;;;;;-2.58;72.44;101320.80;1832272;77;21793;-60
2023/03/01 00:23:31;;;;;;;34.23;19.27;;;;;;;-2.64;72.51;101317.95;1888148;75;21219;-60
2023/03/01 00:26:59;;;;;;;32.30;19.17;;;;;;;-2.67;72.57;101308.72;1794800;80;21209;-60
2023/03/01 00:30:26;;;;;;;32.63;19.40;;;;;;;-2.68;72.63;101305.62;1819816;78;21739;-60
2023/03/01 00:41:01;;;;;;;29.63;19.23;;;;;;;-2.73;72.65;101278.65;1722045;79;21187;-60
2023/03/01 00:44:45;;;;;;;29.27;17.70;;;;;;;-2.75;72.71;101272.03;1798238;79;21179;-61
2023/03/01 00:52:02;;;;;;;31.87;19.70;;;;;;;-2.70;72.74;101268.67;1885506;75;22199;-59
2023/03/01 00:55:45;;;;;;;29.72;17.62;;;;;;;-2.69;72.74;101256.12;1859864;76;22273;-59
2023/03/01 00:59:29;;;;;;;30.30;17.50;;;;;;;-2.75;72.73;101251.94;1805367;79;21520;-59
2023/03/01 01:03:39;;;;;;;32.58;17.73;;;;;;;-2.76;72.77;101264.06;1792388;79;21749;-59
2023/03/01 01:07:50;;;;;;;31.68;19.20;;;;;;;-2.78;72.77;101250.73;1788254;79;21267;-60
2023/03/01 01:12:19;;;;;;;30.40;17.90;;;;;;;-2.76;72.81;101235.94;1805132;79;21390;-60
2023/03/01 01:16:17;;;;;;;30.70;17.00;;;;;;;-2.76;72.85;101234.59;1802452;79;21749;-59
2023/03/01 01:20:04;;;;;;;28.55;16.85;;;;;;;-2.67;72.97;101216.28;1822877;77;22265;-59
2023/03/01 01:27:59;;;;;;;28.52;16.95;;;;;;;-2.66;72.98;101209.96;1623792;86;21357;-59
2023/03/01 01:32:25;;;;;;;27.42;17.23;;;;;;;-2.63;73.02;101212.50;1653464;86;21224;-59
2023/03/01 01:39:19;;;;;;;28.00;18.12;;;;;;;-2.57;73.07;101208.67;1676368;84;21336;-60
2023/03/01 01:42:49;;;;;;;37.13;20.80;;;;;;;-2.55;73.07;101196.08;1646313;83;21275;-59
2023/03/01 01:46:52;;;;;;;27.55;17.00;;;;;;;-2.44;73.06;101199.11;1787641;76;22283;-59
2023/03/01 01:50:19;;;;;;;;;;;;;;;-2.47;73.09;101195.20;1766424;79;21263;-59
2023/03/01 01:54:21;;;;;;;29.45;17.05;;;;;;;-2.44;73.06;101177.66;1794630;76;20712;-59
2023/03/01 01:57:45;;;;;;;29.57;18.80;;;;;;;-2.44;73.04;101164.26;1792176;78;21434;-60
2023/03/01 02:02:02;;;;;;;28.52;16.95;;;;;;;-2.46;72.96;101151.40;1771698;78;21670;-59
2023/03/01 02:09:59;;;;;;;24.27;15.30;;;;;;;-2.45;73.02;101188.84;1787794;78;21188;-61
2023/03/01 02:17:41;;;;;;;25.30;15.43;;;;;;;-2.43;72.90;101152.58;1785707;77;21160;-59
2023/03/01 02:21:57;;;;;;;28.42;15.68;;;;;;;-2.37;72.89;101157.64;1830209;76;22388;-59
2023/03/01 02:25:45;;;;;;;29.42;15.50;;;;;;;-2.37;72.89;101134.39;1830297;75;22250;-59
2023/03/01 02:29:55;;;;;;;24.63;15.25;;;;;;;-2.42;72.89;101140.45;1777582;77;21196;-59
2023/03/01 02:33:05;;;;;;;24.30;13.98;;;;;;;-2.43;72.88;101145.88;1784598;78;21163;-59
2023/03/01 02:37:24;;;;;;;22.27;14.58;;;;;;;-2.44;72.85;101135.63;1742900;78;21232;-59
2023/03/01 02:41:15;;;;;;;24.23;14.95;;;;;;;-2.41;72.89;101145.34;1752700;81;21450;-59
2023/03/01 02:45:10;;;;;;;23.25;15.00;;;;;;;-2.40;72.89;101137.22;1702303;80;21829;-59
2023/03/01 02:49:31;;;;;;;25.77;16.05;;;;;;;-2.40;72.87;101123.82;1687336;82;21187;-61
2023/03/01 02:57:27;;;;;;;26.12;18.37;;;;;;;-2.37;72.83;101102.69;1746268;79;21789;-60
2023/03/01 03:01:15;;;;;;;27.95;16.32;;;;;;;-2.40;72.82;101102.38;1750063;79;21218;-60
2023/03/01 03:08:49;;;;;;;22.52;14.28;;;;;;;-2.37;72.89;101081.23;1711163;80;21223;-59
2023/03/01 03:12:24;;;;;;;25.02;13.83;;;;;;;-2.37;72.91;101083.45;1691267;82;21681;-59
2023/03/01 03:16:08;;;;;;;21.60;13.45;;;;;;;-2.37;72.92;101071.86;1703312;81;21264;-59
2023/03/01 03:20:03;;;;;;;26.55;14.13;;;;;;;-2.30;72.91;101066.59;1894796;74;22246;-60
2023/03/01 03:23:53;;;;;;;20.75;13.25;;;;;;;-2.35;72.91;101065.95;1868711;76;21235;-59
2023/03/01 03:27:41;;;;;;;23.42;13.50;;;;;;;-2.31;72.83;101061.69;1806686;73;22631;-58
2023/03/01 03:31:21;;;;;;;20.48;12.63;;;;;;;-2.39;72.84;101061.67;1752267;76;21716;-61
2023/03/01 03:35:15;;;;;;;25.30;17.80;;;;;;;-2.35;72.77;101064.15;1803816;78;28669;-58
2023/03/01 03:43:06;;;;;;;21.97;12.68;;;;;;;-2.40;72.54;101044.75;1762819;81;21348;-59
2023/03/01 03:47:16;;;;;;;20.55;13.53;;;;;;;-2.47;72.55;101043.77;1764500;81;21857;-60
2023/03/01 03:50:41;;;;;;;23.02;13.18;;;;;;;-2.48;72.56;101052.77;1762127;80;21185;-59
2023/03/01 03:54:28;;;;;;;26.02;15.08;;;;;;;-2.47;72.55;101047.79;1878178;76;22199;-58
2023/03/01 03:58:06;;;;;;;24.57;13.93;;;;;;;-2.54;72.61;101042.37;1760037;80;21342;-59
2023/03/01 04:01:31;;;;;;;22.98;13.83;;;;;;;-2.55;72.66;101041.98;1694107;83;21742;-58
2023/03/01 04:09:48;;;;;;;20.45;13.55;;;;;;;-2.59;72.57;101041.73;1712677;84;21177;-59
2023/03/01 04:13:43;;;;;;;20.70;12.98;;;;;;;-2.58;72.63;101036.29;1880016;75;22191;-59
2023/03/01 04:21:33;;;;;;;27.75;16.95;;;;;;;-2.66;72.66;101026.92;1801399;76;21175;-59
2023/03/01 04:25:24;;;;;;;27.70;15.65;;;;;;;-2.66;72.66;101019.73;1786800;77;21218;-59
2023/03/01 04:29:17;;;;;;;22.70;13.72;;;;;;;-2.69;72.66;101022.56;1809158;76;21214;-59
2023/03/01 04:33:04;;;;;;;23.80;14.10;;;;;;;-2.67;72.66;101025.17;1794008;78;21364;-59
2023/03/01 04:36:56;;;;;;;22.90;13.50;;;;;;;-2.66;72.71;101029.60;1782146;77;21422;-58
2023/03/01 04:40:42;;;;;;;23.60;14.45;;;;;;;-2.58;72.71;101022.02;1869992;73;22270;-58
2023/03/01 04:47:59;;;;;;;22.00;13.93;;;;;;;-2.59;72.75;101023.84;1789658;75;21573;-58
2023/03/01 05:02:48;;;;;;;27.75;15.68;;;;;;;-2.35;72.86;101014.55;1877999;76;23381;-59
2023/03/01 05:07:00;;;;;;;27.52;15.95;;;;;;;-2.39;72.85;101021.01;1740338;82;21204;-60
2023/03/01 05:21:20;;;;;;;20.90;12.80;;;;;;;-2.01;72.99;101014.51;1762242;78;22804;-59
2023/03/01 05:40:03;;;;;;;23.47;13.78;;;;;;;-1.66;72.99;101036.75;1799447;77;21235;-59
2023/03/01 05:54:34;;;;;;;21.30;13.15;;;;;;;-1.21;72.93;101050.82;1874618;76;28566;-59
2023/03/01 07:01:02;;;;;;;21.42;13.50;;;;;;;0.52;71.96;101005.36;1735607;78;21237;-60
2023/03/01 07:20:55;;;;;;;23.35;13.83;;;;;;;0.87;72.11;101020.13;1754226;78;21396;-59
2023/03/01 07:24:28;;;;;;;19.23;12.50;;;;;;;0.91;71.99;101004.13;1737437;81;22068;-60
2023/03/01 07:46:51;;;;;;;23.30;13.93;;;;;;;1.23;71.92;100992.98;1745658;78;21172;-58
2023/03/01 08:02:34;;;;;;;21.15;13.55;;;;;;;1.55;71.74;100984.07;1743527;79;21761;-61
2023/03/01 08:36:20;;;;;;;21.30;14.25;;;;;;;2.36;71.68;100978.28;1702467;82;21366;-60
2023/03/01 10:10:27;;;;;;;23.75;15.85;;;;;;;3.28;71.03;100979.57;1828358;74;22964;-58
2023/03/01 10:26:57;;;;;;;22.42;14.60;;;;;;;3.27;70.87;100971.06;1728264;78;20311;-58
2023/03/01 10:31:37;;;;;;;24.02;16.75;;;;;;;3.19;70.86;100966.71;1733768;80;21303;-58
2023/03/01 11:16:26;;;;;;;;;;;;;;;3.56;70.91;100968.38;1748435;78;21210;-61
2023/03/01 11:38:28;;;;;;;25.95;17.25;;;;;;;3.15;71.07;100963.88;1708947;78;21692;-60
2023/03/01 12:39:13;;;;;;;20.30;13.95;;;;;;;3.84;71.04;100970.67;1780687;78;21146;-58
2023/03/01 13:18:07;;;;;;;19.12;12.58;;;;;;;3.57;71.28;100964.67;1759798;77;21261;31
2023/03/01 13:26:16;;;;;;;21.73;14.13;;;;;;;3.80;71.15;100985.92;1712626;79;21752;-57
2023/03/01 13:30:13;;;;;;;20.52;12.40;;;;;;;3.75;71.11;100977.29;1724446;78;21687;-57
2023/03/01 13:33:55;;;;;;;20.23;13.45;;;;;;;3.73;71.12;100982.83;1793625;77;21559;-59
2023/03/01 13:38:29;;;;;;;17.05;11.48;;;;;;;3.79;71.10;100980.16;1905317;74;23085;-56
2023/03/01 14:00:49;;;;;;;18.85;11.30;;;;;;;3.62;71.19;100973.79;1790534;76;21410;-57
2023/03/01 14:12:04;;;;;;;18.77;11.57;;;;;;;3.55;71.17;100974.75;1719800;80;22096;-58
2023/03/01 14:15:50;;;;;;;19.32;12.05;;;;;;;3.52;71.22;100981.75;1706523;83;21309;-59
2023/03/01 14:19:57;;;;;;;17.52;12.53;;;;;;;3.46;71.19;100986.28;1705108;81;21598;-57
2023/03/01 14:24:01;;;;;;;19.12;12.13;;;;;;;3.43;71.20;100984.29;1876770;76;22535;-59
2023/03/01 14:27:07;;;;;;;17.17;11.48;;;;;;;3.36;71.24;100978.51;1751857;79;21196;-58
2023/03/01 14:35:12;;;;;;;17.80;11.18;;;;;;;3.34;71.34;100974.17;1772669;78;21203;-58
2023/03/01 14:39:12;;;;;;;18.00;11.68;;;;;;;3.34;71.39;100973.69;1755047;80;21342;-58
2023/03/01 14:51:42;;;;;;;21.10;13.20;;;;;;;3.33;71.30;100986.83;1652055;84;21258;-58
2023/03/01 14:54:56;;;;;;;24.98;15.10;;;;;;;3.32;71.36;100989.17;1700442;82;21207;-58
2023/03/01 14:58:29;;;;;;;25.60;17.62;;;;;;;3.36;71.32;100992.03;1817730;75;28088;-57
2023/03/01 15:06:32;;;;;;;25.55;14.98;;;;;;;3.35;71.14;100997.53;1788707;76;22339;-57
2023/03/01 15:13:34;;;;;;;20.37;14.70;;;;;;;3.20;71.19;100999.56;1723002;80;22183;-56
2023/03/01 15:16:53;;;;;;;30.40;20.88;;;;;;;3.16;71.20;100995.82;1702326;79;21441;-57
2023/03/01 15:20:30;;;;;;;20.02;13.50;;;;;;;3.11;71.26;101002.93;1717559;79;21536;-58
2023/03/01 15:23:55;;;;;;;21.90;13.58;;;;;;;3.08;71.36;101004.52;1731869;79;21234;-57
2023/03/01 15:27:35;;;;;;;18.73;12.53;;;;;;;3.06;71.33;101014.57;1691809;79;21292;-56
2023/03/01 15:31:34;;;;;;;31.65;18.48;;;;;;;3.03;71.31;101020.20;1705789;81;21239;-58
2023/03/01 15:40:04;;;;;;;20.97;14.78;;;;;;;2.98;71.46;101027.31;1660275;81;21679;-57
2023/03/01 15:43:42;;;;;;;22.15;13.95;;;;;;;3.03;71.54;101034.61;1867566;76;22556;-56
2023/03/01 15:47:06;;;;;;;27.52;18.80;;;;;;;2.96;71.54;101044.16;1772508;79;21544;-56
2023/03/01 15:58:43;;;;;;;19.23;13.18;;;;;;;2.80;71.43;101050.30;1788972;79;21343;-59
2023/03/01 16:06:03;;;;;;;19.02;11.75;;;;;;;2.66;71.53;101045.50;1774561;78;21726;-55
2023/03/01 16:09:29;;;;;;;19.15;12.47;;;;;;;2.57;71.49;101055.11;1777171;80;21304;-57
2023/03/01 16:12:52;;;;;;;19.50;11.38;;;;;;;2.51;71.49;101062.31;1734797;82;21379;-58
2023/03/01 16:30:28;;;;;;;15.70;9.45;;;;;;;2.63;71.56;101075.45;1762823;80;22389;-59
2023/03/01 16:33:59;;;;;;;12.68;7.22;;;;;;;2.60;71.55;101081.92;1733079;82;21195;-56
2023/03/01 16:37:35;;;;;;;11.03;7.10;;;;;;;2.62;71.47;101075.05;1734371;82;21248;-58
2023/03/01 16:44:33;;;;;;;27.10;11.15;;;;;;;2.74;71.57;101082.31;1770072;79;21260;-57
2023/03/01 16:58:34;;;;;;;9.30;5.33;;;;;;;2.83;71.29;101091.11;1841660;78;22778;-55
2023/03/01 17:02:00;;;;;;;9.38;4.72;;;;;;;2.77;71.28;101107.29;1623889;84;21284;-58
2023/03/01 17:05:26;;;;;;;8.53;5.17;;;;;;;2.74;71.21;101098.02;1616554;84;21275;-58
2023/03/01 17:08:42;;;;;;;11.28;5.85;;;;;;;2.70;71.16;101095.17;1581096;84;21628;-55
2023/03/01 17:12:19;;;;;;;10.72;5.90;;;;;;;2.68;71.11;101097.61;1555862;87;21757;-57
2023/03/01 17:15:48;;;;;;;12.55;5.45;;;;;;;2.64;71.11;101102.84;1610895;83;21252;-56
2023/03/01 17:19:19;;;;;;;10.65;4.90;;;;;;;2.61;71.07;101099.88;1610542;85;21233;-55
2023/03/01 17:22:43;;;;;;;9.68;5.85;;;;;;;2.56;71.01;101093.05;1628224;83;21863;-57
2023/03/01 17:26:06;;;;;;;12.43;6.92;;;;;;;2.58;71.03;101088.41;1829639;76;22282;-55
2023/03/01 17:29:31;;;;;;;12.80;6.28;;;;;;;2.52;71.03;101101.86;1773033;79;21236;-56
2023/03/01 17:32:54;;;;;;;14.55;6.97;;;;;;;2.51;71.05;101096.56;1772655;80;21608;-58
2023/03/01 17:37:10;;;;;;;19.90;13.03;;;;;;;2.51;71.02;101101.97;1769842;79;21765;-57
2023/03/01 17:40:34;;;;;;;15.80;9.78;;;;;;;2.53;70.94;101093.27;1854276;76;22277;-55
2023/03/01 17:44:16;;;;;;;16.35;8.75;;;;;;;2.46;70.99;101100.06;1790598;79;21177;-57
2023/03/01 17:47:49;;;;;;;22.45;13.45;;;;;;;2.44;70.94;101097.47;1736294;79;21694;-58
2023/03/01 17:51:03;;;;;;;36.93;19.73;;;;;;;2.48;70.95;101095.43;1847980;76;22267;-55
2023/03/01 17:54:26;;;;;;;37.75;21.42;;;;;;;2.42;70.98;101095.39;1785281;78;22011;-58
2023/03/01 17:57:45;;;;;;;33.88;19.23;;;;;;;2.45;70.92;101105.10;1746890;81;21422;-56
2023/03/01 18:04:52;;;;;;;17.48;10.05;;;;;;;2.45;70.84;101100.58;1761329;81;21217;-57
2023/03/01 18:08:06;;;;;;;14.38;8.05;;;;;;;2.46;70.81;101102.77;1736026;81;21253;-58
2023/03/01 18:11:38;;;;;;;16.27;7.40;;;;;;;2.50;70.73;101097.55;1843946;76;22481;-58
2023/03/01 18:15:07;;;;;;;10.75;6.50;;;;;;;2.44;70.75;101106.09;1790648;79;21342;-57
2023/03/01 18:18:33;;;;;;;13.85;7.62;;;;;;;2.44;70.73;101104.73;1805581;79;21262;-59
2023/03/01 18:22:00;;;;;;;13.95;8.95;;;;;;;2.42;70.70;101103.49;1791028;79;21173;-59
2023/03/01 18:25:37;;;;;;;15.88;9.98;;;;;;;2.48;70.74;101108.47;1866160;76;22265;-58
2023/03/01 18:29:14;;;;;;;16.87;9.68;;;;;;;2.41;70.71;101111.20;1812368;79;21302;-59
2023/03/01 18:32:31;;;;;;;13.68;8.80;;;;;;;2.37;70.72;101113.75;1810537;78;21165;-58
2023/03/01 18:35:50;;;;;;;12.30;8.73;;;;;;;2.32;70.73;101102.39;1812363;78;21213;-58
2023/03/01 18:39:24;;;;;;;12.78;9.20;;;;;;;2.27;70.74;101117.17;1799117;79;21195;-58
2023/03/01 18:42:57;;;;;;;11.28;7.15;;;;;;;2.19;70.72;101125.81;1804625;79;21205;-58
2023/03/01 18:46:12;;;;;;;14.23;8.73;;;;;;;2.10;70.66;101126.45;1776625;79;21292;-59
2023/03/01 18:49:32;;;;;;;13.83;8.60;;;;;;;2.00;70.68;101123.12;1758882;78;21323;-58
2023/03/01 18:53:08;;;;;;;27.93;15.95;;;;;;;1.89;70.68;101125.19;1805048;79;21204;-57
2023/03/01 19:01:10;;;;;;;26.40;15.00;;;;;;;1.76;70.71;101141.80;1842114;76;22793;-58
2023/03/01 19:04:42;;;;;;;57.73;35.03;;;;;;;1.65;70.70;101135.41;1718685;79;21779;-58
2023/03/01 19:08:00;;;;;;;32.60;19.77;;;;;;;1.57;70.70;101136.40;1743825;79;21235;-58
2023/03/01 19:15:19;;;;;;;;;;;;;;;1.41;70.71;101142.77;1800016;78;21700;-57
2023/03/01 19:19:16;;;;;;;18.50;11.55;;;;;;;1.36;70.75;101144.90;1851352;74;22323;-59
2023/03/01 19:22:54;;;;;;;29.27;15.08;;;;;;;1.25;70.73;101150.62;1793720;77;21343;-59
2023/03/01 19:30:39;;;;;;;49.27;24.95;;;;;;;1.13;70.85;101152.73;1790970;79;21768;-57
2023/03/01 19:34:17;;;;;;;29.72;20.37;;;;;;;1.08;70.92;101158.42;1795702;77;21359;-59
2023/03/01 19:38:11;;;;;;;20.25;14.45;;;;;;;1.03;70.79;101159.19;1875004;75;22251;-56
2023/03/01 19:41:59;;;;;;;25.60;19.32;;;;;;;0.93;70.79;101159.88;1791630;77;21287;-57
2023/03/01 19:45:17;;;;;;;21.80;15.53;;;;;;;0.90;70.77;101155.56;1842312;76;22753;-59
2023/03/01 19:48:39;;;;;;;26.87;16.73;;;;;;;0.78;70.77;101156.30;1773839;81;21317;-57
2023/03/01 19:51:50;;;;;;;17.82;12.35;;;;;;;0.72;70.79;101160.73;1771820;80;21265;-58
2023/03/01 19:55:31;;;;;;;21.07;16.15;;;;;;;0.67;70.76;101154.75;1768120;80;21753;-56
2023/03/01 19:59:02;;;;;;;23.55;16.82;;;;;;;0.61;70.79;101162.34;1763873;80;21174;-58
2023/03/01 20:02:28;;;;;;;;;;;;;;;0.57;70.82;101163.50;1709041;83;21194;-56
2023/03/01 20:05:53;;;;;;;21.20;12.47;;;;;;;0.54;70.83;101161.00;1669345;83;20268;-57
2023/03/01 20:10:14;;;;;;;22.58;15.43;;;;;;;0.51;70.83;101163.38;1864505;74;22310;-57
2023/03/01 20:17:32;;;;;;;;;;;;;;;0.39;70.89;101174.03;1805310;77;21211;-58
2023/03/01 20:20:59;;;;;;;21.12;14.07;;;;;;;0.38;70.88;101153.47;1852660;76;22277;-59
2023/03/01 20:24:19;;;;;;;23.25;14.78;;;;;;;0.36;70.94;101156.72;1874886;76;22168;-57
2023/03/01 20:27:51;;;;;;;39.85;22.00;;;;;;;0.30;71.01;101156.63;1746574;79;21196;-58
2023/03/01 20:31:18;;;;;;;32.67;18.52;;;;;;;0.35;71.02;101157.19;1848359;76;22262;-57
2023/03/01 20:35:08;;;;;;;26.30;12.65;;;;;;;0.27;71.00;101158.13;1766204;79;21789;-59
2023/03/01 20:38:50;;;;;;;27.50;13.72;;;;;;;0.23;70.98;101157.94;1783798;79;21430;-59
2023/03/01 20:42:21;;;;;;;17.90;9.93;;;;;;;0.19;70.99;101159.06;1779323;79;21121;-59
2023/03/01 20:46:26;;;;;;;16.07;9.18;;;;;;;0.16;70.98;101162.45;1804665;79;21394;-58
2023/03/01 20:50:20;;;;;;;30.17;14.95;;;;;;;0.09;70.92;101158.37;1771241;79;21244;-60
2023/03/01 20:54:07;;;;;;;22.20;12.10;;;;;;;0.04;70.90;101164.03;1684243;82;21200;-58
2023/03/01 20:57:29;;;;;;;20.27;12.00;;;;;;;0.00;70.94;101175.45;1805981;79;21189;-57
2023/03/01 21:04:37;;;;;;;19.67;11.85;;;;;;;-0.02;70.95;101181.38;1872023;76;22283;-57
2023/03/01 21:26:36;;;;;;;21.00;11.00;;;;;;;-0.15;71.21;101186.23;1885262;76;22790;-59
2023/03/01 21:33:47;;;;;;;18.02;10.00;;;;;;;-0.25;71.21;101183.67;1748858;78;21205;-57
2023/03/01 21:41:31;;;;;;;36.73;17.85;;;;;;;-0.25;71.19;101175.61;1849382;76;22276;-59
2023/03/01 21:44:55;;;;;;;33.33;16.93;;;;;;;-0.33;71.21;101170.68;1788540;79;21165;-57
2023/03/01 21:49:02;;;;;;;33.02;15.93;;;;;;;-0.32;71.28;101177.78;1786881;79;21401;-57
2023/03/01 21:52:44;;;;;;;50.85;27.52;;;;;;;-0.32;71.26;101182.31;1804684;79;22040;-57
2023/03/01 21:56:28;;;;;;;29.95;16.27;;;;;;;-0.37;71.12;101177.20;1794650;79;21255;-57
2023/03/01 22:00:31;;;;;;;37.95;17.32;;;;;;;-0.37;71.12;101177.20;1779212;79;21355;-57
2023/03/01 22:04:03;;;;;;;33.30;17.35;;;;;;;-0.40;71.24;101173.31;1792224;79;21176;-59
2023/03/01 22:14:56;;;;;;;27.02;14.90;;;;;;;-0.43;71.29;101153.83;1805694;79;21331;-59
2023/03/01 22:18:31;;;;;;;23.30;13.93;;;;;;;-0.44;71.32;101159.67;1802866;79;21236;-58
2023/03/01 22:22:04;;;;;;;25.95;13.60;;;;;;;-0.48;71.31;101159.47;1690271;85;21379;-57
2023/03/01 22:25:39;;;;;;;25.02;13.30;;;;;;;-0.53;71.25;101166.05;1716574;83;21279;-58
2023/03/01 22:32:47;;;;;;;31.07;14.43;;;;;;;-0.58;71.31;101170.81;1682359;83;21330;-58
2023/03/01 22:36:26;;;;;;;21.45;11.70;;;;;;;-0.59;71.29;101159.68;1722240;82;21240;-59
2023/03/01 22:39:59;;;;;;;21.02;10.18;;;;;;;-0.61;71.28;101148.14;1702640;83;21757;-58
2023/03/01 22:44:08;;;;;;;16.90;8.78;;;;;;;-0.66;71.24;101150.22;1707071;83;21729;-59
2023/03/01 22:52:28;;;;;;;18.25;10.78;;;;;;;-0.77;71.24;101149.48;1706398;83;21243;-58
2023/03/01 22:56:24;;;;;;;21.60;10.15;;;;;;;-0.83;71.28;101157.02;1721929;83;21254;-58
2023/03/01 23:00:17;;;;;;;19.35;10.03;;;;;;;-0.87;71.29;101150.09;1697932;83;21235;-59
2023/03/01 23:03:36;;;;;;;19.32;9.73;;;;;;;-0.88;71.34;101158.62;1700740;83;21401;-59
2023/03/01 23:06:57;;;;;;;15.40;9.08;;;;;;;-0.87;71.36;101148.75;1684472;83;21202;-60
2023/03/01 23:10:27;;;;;;;14.35;7.62;;;;;;;-0.89;71.31;101147.95;1728331;78;21230;-58
2023/03/01 23:13:52;;;;;;;13.13;7.97;;;;;;;-0.92;71.29;101159.72;1760387;81;21707;-58
2023/03/01 23:17:06;;;;;;;15.10;8.33;;;;;;;-0.94;71.32;101162.12;1702980;83;21143;-59
2023/03/01 23:20:41;;;;;;;14.53;7.78;;;;;;;-0.97;71.31;101164.51;1729621;83;21301;-58
2023/03/01 23:24:20;;;;;;;15.25;8.10;;;;;;;-1.00;71.31;101166.49;1717428;80;21186;-59
2023/03/01 23:27:47;;;;;;;14.53;7.80;;;;;;;-1.01;71.32;101158.02;1713179;83;21173;-58
2023/03/01 23:31:24;;;;;;;11.85;7.30;;;;;;;-1.02;71.32;101160.33;1719010;82;21745;-57
2023/03/01 23:39:03;;;;;;;13.43;7.53;;;;;;;-0.87;71.25;101154.97;1843182;74;22237;-59
2023/03/01 23:42:28;;;;;;;14.83;7.60;;;;;;;-0.95;71.28;101157.70;1758058;79;21184;-58
2023/03/01 23:56:32;;;;;;;12.70;7.37;;;;;;;-0.98;71.50;101139.07;1751668;79;22406;-58
